sensor_id;sensor_type;location;lat;lon;timestamp;temperature;humidity
39325;DHT22;25037;49.488;9.900;2022-11-15T00:01:44;10.00;74.10
39325;DHT22;25037;49.488;9.900;2022-11-15T00:04:10;10.00;74.10
39325;DHT22;25037;49.488;9.900;2022-11-15T00:06:36;10.00;74.10
39325;DHT22;25037;49.488;9.900;2022-11-15T00:09:02;10.00;74.20
39325;DHT22;25037;49.488;9.900;2022-11-15T00:11:28;10.00;74.20
39325;DHT22;25037;49.488;9.900;2022-11-15T00:13:57;10.00;74.30
39325;DHT22;25037;49.488;9.900;2022-11-15T00:16:24;10.00;74.30
39325;DHT22;25037;49.488;9.900;2022-11-15T00:18:50;10.00;74.30
39325;DHT22;25037;49.488;9.900;2022-11-15T00:21:16;10.10;74.30
39325;DHT22;25037;49.488;9.900;2022-11-15T00:23:42;10.10;74.30
39325;DHT22;25037;49.488;9.900;2022-11-15T00:26:12;10.00;74.40
39325;DHT22;25037;49.488;9.900;2022-11-15T00:28:37;10.00;74.40
39325;DHT22;25037;49.488;9.900;2022-11-15T00:31:05;10.00;74.50
39325;DHT22;25037;49.488;9.900;2022-11-15T00:33:31;10.10;74.50
39325;DHT22;25037;49.488;9.900;2022-11-15T00:36:05;10.10;74.50
39325;DHT22;25037;49.488;9.900;2022-11-15T00:38:35;10.10;74.60
39325;DHT22;25037;49.488;9.900;2022-11-15T00:41:03;10.10;74.50
39325;DHT22;25037;49.488;9.900;2022-11-15T00:43:29;10.10;74.60
39325;DHT22;25037;49.488;9.900;2022-11-15T00:45:55;10.10;74.60
39325;DHT22;25037;49.488;9.900;2022-11-15T00:48:20;10.10;74.60
39325;DHT22;25037;49.488;9.900;2022-11-15T00:50:46;10.10;74.60
39325;DHT22;25037;49.488;9.900;2022-11-15T00:53:11;10.10;74.70
39325;DHT22;25037;49.488;9.900;2022-11-15T00:55:37;10.10;74.60
39325;DHT22;25037;49.488;9.900;2022-11-15T00:58:02;10.10;74.60
39325;DHT22;25037;49.488;9.900;2022-11-15T01:00:28;10.10;74.60
39325;DHT22;25037;49.488;9.900;2022-11-15T01:02:54;10.10;74.50
39325;DHT22;25037;49.488;9.900;2022-11-15T01:05:19;10.00;74.50
39325;DHT22;25037;49.488;9.900;2022-11-15T01:07:45;9.90;74.60
39325;DHT22;25037;49.488;9.900;2022-11-15T01:10:11;9.90;74.60
39325;DHT22;25037;49.488;9.900;2022-11-15T01:12:36;9.80;74.60
39325;DHT22;25037;49.488;9.900;2022-11-15T01:15:03;9.80;74.60
39325;DHT22;25037;49.488;9.900;2022-11-15T01:17:30;9.70;74.70
39325;DHT22;25037;49.488;9.900;2022-11-15T01:19:55;9.60;74.70
39325;DHT22;25037;49.488;9.900;2022-11-15T01:22:21;9.60;74.80
39325;DHT22;25037;49.488;9.900;2022-11-15T01:24:46;9.50;74.80
39325;DHT22;25037;49.488;9.900;2022-11-15T01:27:12;9.50;74.90
39325;DHT22;25037;49.488;9.900;2022-11-15T01:29:37;9.40;74.90
39325;DHT22;25037;49.488;9.900;2022-11-15T01:32:03;9.40;74.90
39325;DHT22;25037;49.488;9.900;2022-11-15T01:34:29;9.40;74.90
39325;DHT22;25037;49.488;9.900;2022-11-15T01:36:54;9.30;74.90
39325;DHT22;25037;49.488;9.900;2022-11-15T01:39:20;9.30;74.90
39325;DHT22;25037;49.488;9.900;2022-11-15T01:41:45;9.20;74.90
39325;DHT22;25037;49.488;9.900;2022-11-15T01:47:09;9.10;74.90
39325;DHT22;25037;49.488;9.900;2022-11-15T01:49:38;9.00;75.00
39325;DHT22;25037;49.488;9.900;2022-11-15T01:52:09;8.90;75.20
39325;DHT22;25037;49.488;9.900;2022-11-15T01:54:35;8.80;75.20
39325;DHT22;25037;49.488;9.900;2022-11-15T01:57:04;8.80;75.20
39325;DHT22;25037;49.488;9.900;2022-11-15T01:59:32;8.70;75.30
39325;DHT22;25037;49.488;9.900;2022-11-15T02:01:58;8.70;75.30
39325;DHT22;25037;49.488;9.900;2022-11-15T02:04:32;8.70;75.40
39325;DHT22;25037;49.488;9.900;2022-11-15T02:06:59;8.60;75.40
39325;DHT22;25037;49.488;9.900;2022-11-15T02:09:27;8.60;75.40
39325;DHT22;25037;49.488;9.900;2022-11-15T02:11:54;8.60;75.40
39325;DHT22;25037;49.488;9.900;2022-11-15T02:14:21;8.50;75.30
39325;DHT22;25037;49.488;9.900;2022-11-15T02:25:55;8.30;75.50
39325;DHT22;25037;49.488;9.900;2022-11-15T02:31:21;8.20;75.70
39325;DHT22;25037;49.488;9.900;2022-11-15T02:42:11;8.20;75.80
39325;DHT22;25037;49.488;9.900;2022-11-15T02:44:58;8.10;75.60
39325;DHT22;25037;49.488;9.900;2022-11-15T02:47:31;8.00;75.70
39325;DHT22;25037;49.488;9.900;2022-11-15T02:50:06;8.00;75.70
39325;DHT22;25037;49.488;9.900;2022-11-15T02:52:32;8.00;75.80
39325;DHT22;25037;49.488;9.900;2022-11-15T02:54:59;7.90;75.80
39325;DHT22;25037;49.488;9.900;2022-11-15T02:57:57;7.90;75.90
39325;DHT22;25037;49.488;9.900;2022-11-15T03:00:39;7.90;75.90
39325;DHT22;25037;49.488;9.900;2022-11-15T03:11:23;7.80;75.80
39325;DHT22;25037;49.488;9.900;2022-11-15T03:14:00;7.80;75.80
39325;DHT22;25037;49.488;9.900;2022-11-15T03:16:30;7.80;75.90
39325;DHT22;25037;49.488;9.900;2022-11-15T03:19:13;7.70;75.80
39325;DHT22;25037;49.488;9.900;2022-11-15T03:21:42;7.70;75.80
39325;DHT22;25037;49.488;9.900;2022-11-15T03:24:08;7.70;75.70
39325;DHT22;25037;49.488;9.900;2022-11-15T03:26:37;7.70;75.70
39325;DHT22;25037;49.488;9.900;2022-11-15T03:29:15;7.60;75.70
39325;DHT22;25037;49.488;9.900;2022-11-15T03:31:46;7.60;75.80
39325;DHT22;25037;49.488;9.900;2022-11-15T03:34:29;7.50;75.90
39325;DHT22;25037;49.488;9.900;2022-11-15T03:36:55;7.50;76.10
39325;DHT22;25037;49.488;9.900;2022-11-15T03:39:21;7.40;76.00
39325;DHT22;25037;49.488;9.900;2022-11-15T03:45:19;7.40;76.20
39325;DHT22;25037;49.488;9.900;2022-11-15T03:47:53;7.30;76.10
39325;DHT22;25037;49.488;9.900;2022-11-15T03:50:21;7.20;76.20
39325;DHT22;25037;49.488;9.900;2022-11-15T03:52:48;7.20;76.30
39325;DHT22;25037;49.488;9.900;2022-11-15T03:55:18;7.10;76.30
39325;DHT22;25037;49.488;9.900;2022-11-15T03:57:44;7.10;76.50
39325;DHT22;25037;49.488;9.900;2022-11-15T04:00:10;7.10;76.60
39325;DHT22;25037;49.488;9.900;2022-11-15T04:02:36;7.00;76.60
39325;DHT22;25037;49.488;9.900;2022-11-15T04:05:02;7.00;76.60
39325;DHT22;25037;49.488;9.900;2022-11-15T04:07:28;7.00;76.60
39325;DHT22;25037;49.488;9.900;2022-11-15T04:09:54;7.00;76.50
39325;DHT22;25037;49.488;9.900;2022-11-15T04:12:39;7.00;76.50
39325;DHT22;25037;49.488;9.900;2022-11-15T04:17:38;6.80;76.50
39325;DHT22;25037;49.488;9.900;2022-11-15T04:20:16;6.80;76.50
39325;DHT22;25037;49.488;9.900;2022-11-15T04:23:02;6.80;76.60
39325;DHT22;25037;49.488;9.900;2022-11-15T04:25:50;6.70;76.60
39325;DHT22;25037;49.488;9.900;2022-11-15T04:28:16;6.70;76.60
39325;DHT22;25037;49.488;9.900;2022-11-15T04:30:42;6.70;76.60
39325;DHT22;25037;49.488;9.900;2022-11-15T04:33:07;6.60;76.50
39325;DHT22;25037;49.488;9.900;2022-11-15T04:35:33;6.60;76.50
39325;DHT22;25037;49.488;9.900;2022-11-15T04:37:59;6.60;76.50
39325;DHT22;25037;49.488;9.900;2022-11-15T04:40:25;6.50;76.50
39325;DHT22;25037;49.488;9.900;2022-11-15T04:42:50;6.50;76.60
39325;DHT22;25037;49.488;9.900;2022-11-15T04:45:16;6.50;76.60
39325;DHT22;25037;49.488;9.900;2022-11-15T04:47:45;6.40;76.70
39325;DHT22;25037;49.488;9.900;2022-11-15T04:50:12;6.40;76.70
39325;DHT22;25037;49.488;9.900;2022-11-15T04:52:43;6.40;76.70
39325;DHT22;25037;49.488;9.900;2022-11-15T04:55:10;6.40;76.70
39325;DHT22;25037;49.488;9.900;2022-11-15T04:57:36;6.30;76.70
39325;DHT22;25037;49.488;9.900;2022-11-15T05:00:07;6.40;76.70
39325;DHT22;25037;49.488;9.900;2022-11-15T05:02:33;6.30;76.70
39325;DHT22;25037;49.488;9.900;2022-11-15T05:05:17;6.20;76.70
39325;DHT22;25037;49.488;9.900;2022-11-15T05:07:43;6.20;76.80
39325;DHT22;25037;49.488;9.900;2022-11-15T05:10:09;6.30;76.90
39325;DHT22;25037;49.488;9.900;2022-11-15T05:12:35;6.20;76.80
39325;DHT22;25037;49.488;9.900;2022-11-15T05:15:00;6.20;76.80
39325;DHT22;25037;49.488;9.900;2022-11-15T05:17:26;6.20;76.80
39325;DHT22;25037;49.488;9.900;2022-11-15T05:19:51;6.20;76.90
39325;DHT22;25037;49.488;9.900;2022-11-15T05:22:18;6.20;76.90
39325;DHT22;25037;49.488;9.900;2022-11-15T05:24:44;6.10;76.90
39325;DHT22;25037;49.488;9.900;2022-11-15T05:27:09;6.10;76.90
39325;DHT22;25037;49.488;9.900;2022-11-15T05:29:35;6.10;76.90
39325;DHT22;25037;49.488;9.900;2022-11-15T05:32:00;6.10;76.90
39325;DHT22;25037;49.488;9.900;2022-11-15T05:34:26;6.10;77.00
39325;DHT22;25037;49.488;9.900;2022-11-15T05:36:52;6.10;77.00
39325;DHT22;25037;49.488;9.900;2022-11-15T05:39:17;6.10;77.10
39325;DHT22;25037;49.488;9.900;2022-11-15T05:41:50;6.10;77.10
39325;DHT22;25037;49.488;9.900;2022-11-15T05:44:19;6.10;77.30
39325;DHT22;25037;49.488;9.900;2022-11-15T05:46:47;6.20;77.30
39325;DHT22;25037;49.488;9.900;2022-11-15T05:49:15;6.20;77.30
39325;DHT22;25037;49.488;9.900;2022-11-15T05:51:44;6.20;77.30
39325;DHT22;25037;49.488;9.900;2022-11-15T05:54:11;6.30;77.50
39325;DHT22;25037;49.488;9.900;2022-11-15T05:56:37;6.40;77.50
39325;DHT22;25037;49.488;9.900;2022-11-15T05:59:03;6.50;77.50
39325;DHT22;25037;49.488;9.900;2022-11-15T06:01:29;6.50;77.40
39325;DHT22;25037;49.488;9.900;2022-11-15T06:03:55;6.50;77.40
39325;DHT22;25037;49.488;9.900;2022-11-15T06:06:20;6.60;77.40
39325;DHT22;25037;49.488;9.900;2022-11-15T06:08:46;6.70;77.40
39325;DHT22;25037;49.488;9.900;2022-11-15T06:11:13;6.80;77.40
39325;DHT22;25037;49.488;9.900;2022-11-15T06:13:39;6.80;77.30
39325;DHT22;25037;49.488;9.900;2022-11-15T06:16:05;6.90;77.30
39325;DHT22;25037;49.488;9.900;2022-11-15T06:18:34;6.90;77.30
39325;DHT22;25037;49.488;9.900;2022-11-15T06:21:00;7.00;77.40
39325;DHT22;25037;49.488;9.900;2022-11-15T06:23:26;7.00;77.20
39325;DHT22;25037;49.488;9.900;2022-11-15T06:25:52;7.00;77.20
39325;DHT22;25037;49.488;9.900;2022-11-15T06:28:17;7.00;77.00
39325;DHT22;25037;49.488;9.900;2022-11-15T06:30:43;7.00;77.00
39325;DHT22;25037;49.488;9.900;2022-11-15T06:33:08;7.00;77.00
39325;DHT22;25037;49.488;9.900;2022-11-15T06:35:34;7.00;77.00
39325;DHT22;25037;49.488;9.900;2022-11-15T06:38:06;7.00;77.00
39325;DHT22;25037;49.488;9.900;2022-11-15T06:40:34;7.00;77.00
39325;DHT22;25037;49.488;9.900;2022-11-15T06:43:01;7.00;77.00
39325;DHT22;25037;49.488;9.900;2022-11-15T06:45:27;7.00;77.00
39325;DHT22;25037;49.488;9.900;2022-11-15T06:47:52;7.00;77.00
39325;DHT22;25037;49.488;9.900;2022-11-15T06:50:18;7.00;77.00
39325;DHT22;25037;49.488;9.900;2022-11-15T06:52:44;7.00;76.90
39325;DHT22;25037;49.488;9.900;2022-11-15T06:55:09;7.10;76.80
39325;DHT22;25037;49.488;9.900;2022-11-15T06:57:36;7.10;76.70
39325;DHT22;25037;49.488;9.900;2022-11-15T07:00:04;7.00;76.70
39325;DHT22;25037;49.488;9.900;2022-11-15T07:02:30;7.00;76.70
39325;DHT22;25037;49.488;9.900;2022-11-15T07:04:55;7.00;76.70
39325;DHT22;25037;49.488;9.900;2022-11-15T07:07:21;7.00;76.70
39325;DHT22;25037;49.488;9.900;2022-11-15T07:09:46;7.00;76.70
39325;DHT22;25037;49.488;9.900;2022-11-15T07:12:12;7.10;76.70
39325;DHT22;25037;49.488;9.900;2022-11-15T07:14:39;7.10;76.70
39325;DHT22;25037;49.488;9.900;2022-11-15T07:17:05;7.10;76.60
39325;DHT22;25037;49.488;9.900;2022-11-15T07:19:31;7.20;76.60
39325;DHT22;25037;49.488;9.900;2022-11-15T07:21:56;7.30;76.60
39325;DHT22;25037;49.488;9.900;2022-11-15T07:24:22;7.40;76.50
39325;DHT22;25037;49.488;9.900;2022-11-15T07:26:47;7.60;76.40
39325;DHT22;25037;49.488;9.900;2022-11-15T07:29:13;7.70;76.30
39325;DHT22;25037;49.488;9.900;2022-11-15T07:31:38;7.80;76.20
39325;DHT22;25037;49.488;9.900;2022-11-15T07:34:04;8.00;76.10
39325;DHT22;25037;49.488;9.900;2022-11-15T07:36:30;8.10;75.90
39325;DHT22;25037;49.488;9.900;2022-11-15T07:38:55;8.20;75.80
39325;DHT22;25037;49.488;9.900;2022-11-15T07:41:21;8.30;75.70
39325;DHT22;25037;49.488;9.900;2022-11-15T07:43:46;8.40;75.70
39325;DHT22;25037;49.488;9.900;2022-11-15T07:46:12;8.50;75.60
39325;DHT22;25037;49.488;9.900;2022-11-15T07:48:38;8.60;75.60
39325;DHT22;25037;49.488;9.900;2022-11-15T07:51:05;8.70;75.50
39325;DHT22;25037;49.488;9.900;2022-11-15T07:53:31;8.80;75.40
39325;DHT22;25037;49.488;9.900;2022-11-15T07:55:57;8.80;75.30
39325;DHT22;25037;49.488;9.900;2022-11-15T07:58:22;8.90;75.30
39325;DHT22;25037;49.488;9.900;2022-11-15T08:00:48;9.00;75.20
39325;DHT22;25037;49.488;9.900;2022-11-15T08:03:15;9.10;75.00
39325;DHT22;25037;49.488;9.900;2022-11-15T08:05:42;9.20;75.00
39325;DHT22;25037;49.488;9.900;2022-11-15T08:08:09;9.30;75.00
39325;DHT22;25037;49.488;9.900;2022-11-15T08:10:35;9.40;74.80
39325;DHT22;25037;49.488;9.900;2022-11-15T08:13:04;9.50;74.70
39325;DHT22;25037;49.488;9.900;2022-11-15T08:15:30;9.60;74.50
39325;DHT22;25037;49.488;9.900;2022-11-15T08:17:58;9.70;74.40
39325;DHT22;25037;49.488;9.900;2022-11-15T08:20:25;9.80;74.30
39325;DHT22;25037;49.488;9.900;2022-11-15T08:22:51;9.90;74.10
39325;DHT22;25037;49.488;9.900;2022-11-15T08:25:17;10.00;74.00
39325;DHT22;25037;49.488;9.900;2022-11-15T08:27:43;10.00;73.90
39325;DHT22;25037;49.488;9.900;2022-11-15T08:30:09;10.20;73.80
39325;DHT22;25037;49.488;9.900;2022-11-15T08:32:35;10.20;73.70
39325;DHT22;25037;49.488;9.900;2022-11-15T08:35:00;10.30;73.50
39325;DHT22;25037;49.488;9.900;2022-11-15T08:37:26;10.40;73.40
39325;DHT22;25037;49.488;9.900;2022-11-15T08:39:51;10.50;73.40
39325;DHT22;25037;49.488;9.900;2022-11-15T08:42:17;10.60;73.30
39325;DHT22;25037;49.488;9.900;2022-11-15T08:44:42;10.70;73.20
39325;DHT22;25037;49.488;9.900;2022-11-15T08:47:10;10.80;73.10
39325;DHT22;25037;49.488;9.900;2022-11-15T08:49:36;10.90;72.90
39325;DHT22;25037;49.488;9.900;2022-11-15T08:52:02;11.00;72.80
39325;DHT22;25037;49.488;9.900;2022-11-15T08:54:27;11.10;72.70
39325;DHT22;25037;49.488;9.900;2022-11-15T08:56:53;11.10;72.50
39325;DHT22;25037;49.488;9.900;2022-11-15T08:59:19;11.20;72.40
39325;DHT22;25037;49.488;9.900;2022-11-15T09:01:44;11.20;72.40
39325;DHT22;25037;49.488;9.900;2022-11-15T09:04:10;11.20;72.30
39325;DHT22;25037;49.488;9.900;2022-11-15T09:06:35;11.20;72.30
39325;DHT22;25037;49.488;9.900;2022-11-15T09:09:02;11.20;72.30
39325;DHT22;25037;49.488;9.900;2022-11-15T09:11:27;11.20;72.30
39325;DHT22;25037;49.488;9.900;2022-11-15T09:13:53;11.30;72.30
39325;DHT22;25037;49.488;9.900;2022-11-15T09:16:18;11.40;72.30
39325;DHT22;25037;49.488;9.900;2022-11-15T09:18:44;11.50;72.10
39325;DHT22;25037;49.488;9.900;2022-11-15T09:21:10;11.50;72.00
39325;DHT22;25037;49.488;9.900;2022-11-15T09:23:35;11.60;71.90
39325;DHT22;25037;49.488;9.900;2022-11-15T09:26:02;11.70;71.80
39325;DHT22;25037;49.488;9.900;2022-11-15T09:28:29;11.80;71.70
39325;DHT22;25037;49.488;9.900;2022-11-15T09:30:59;11.90;71.60
39325;DHT22;25037;49.488;9.900;2022-11-15T09:33:26;12.00;71.50
39325;DHT22;25037;49.488;9.900;2022-11-15T09:35:52;12.20;71.40
39325;DHT22;25037;49.488;9.900;2022-11-15T09:38:18;12.30;71.20
39325;DHT22;25037;49.488;9.900;2022-11-15T09:40:49;12.30;71.00
39325;DHT22;25037;49.488;9.900;2022-11-15T09:49:11;12.70;70.80
39325;DHT22;25037;49.488;9.900;2022-11-15T09:51:45;12.80;70.80
39325;DHT22;25037;49.488;9.900;2022-11-15T09:54:31;12.90;70.60
39325;DHT22;25037;49.488;9.900;2022-11-15T09:57:24;13.00;70.40
39325;DHT22;25037;49.488;9.900;2022-11-15T10:05:17;13.40;69.50
39325;DHT22;25037;49.488;9.900;2022-11-15T10:10:56;13.60;69.20
39325;DHT22;25037;49.488;9.900;2022-11-15T10:13:32;13.70;69.20
39325;DHT22;25037;49.488;9.900;2022-11-15T10:24:26;14.30;68.40
39325;DHT22;25037;49.488;9.900;2022-11-15T10:26:54;14.40;68.00
39325;DHT22;25037;49.488;9.900;2022-11-15T10:29:21;14.60;67.80
39325;DHT22;25037;49.488;9.900;2022-11-15T10:31:47;14.70;67.40
39325;DHT22;25037;49.488;9.900;2022-11-15T10:36:56;14.90;66.80
39325;DHT22;25037;49.488;9.900;2022-11-15T10:39:23;15.00;66.40
39325;DHT22;25037;49.488;9.900;2022-11-15T10:41:49;15.20;66.40
39325;DHT22;25037;49.488;9.900;2022-11-15T10:44:21;15.20;66.20
39325;DHT22;25037;49.488;9.900;2022-11-15T10:47:24;15.30;66.00
39325;DHT22;25037;49.488;9.900;2022-11-15T10:50:01;15.50;65.70
39325;DHT22;25037;49.488;9.900;2022-11-15T10:52:28;15.50;65.70
39325;DHT22;25037;49.488;9.900;2022-11-15T10:55:05;15.60;65.80
39325;DHT22;25037;49.488;9.900;2022-11-15T10:57:35;15.80;65.40
39325;DHT22;25037;49.488;9.900;2022-11-15T11:00:25;15.80;65.40
39325;DHT22;25037;49.488;9.900;2022-11-15T11:03:01;16.00;64.90
39325;DHT22;25037;49.488;9.900;2022-11-15T11:05:38;16.20;64.70
39325;DHT22;25037;49.488;9.900;2022-11-15T11:10:57;16.50;64.10
39325;DHT22;25037;49.488;9.900;2022-11-15T11:18:38;17.00;63.00
39325;DHT22;25037;49.488;9.900;2022-11-15T11:21:11;17.10;62.80
39325;DHT22;25037;49.488;9.900;2022-11-15T11:23:52;17.20;62.60
39325;DHT22;25037;49.488;9.900;2022-11-15T11:29:25;17.40;62.00
39325;DHT22;25037;49.488;9.900;2022-11-15T11:37:50;17.80;61.80
39325;DHT22;25037;49.488;9.900;2022-11-15T11:40:29;17.80;61.90
39325;DHT22;25037;49.488;9.900;2022-11-15T11:45:43;18.00;61.60
39325;DHT22;25037;49.488;9.900;2022-11-15T11:48:14;18.00;61.00
39325;DHT22;25037;49.488;9.900;2022-11-15T11:50:44;18.10;60.90
39325;DHT22;25037;49.488;9.900;2022-11-15T11:53:30;18.20;61.10
39325;DHT22;25037;49.488;9.900;2022-11-15T11:56:01;18.30;60.60
39325;DHT22;25037;49.488;9.900;2022-11-15T11:58:46;18.30;60.70
39325;DHT22;25037;49.488;9.900;2022-11-15T12:01:41;18.30;60.40
39325;DHT22;25037;49.488;9.900;2022-11-15T12:04:38;18.30;61.10
39325;DHT22;25037;49.488;9.900;2022-11-15T12:07:19;18.30;60.90
39325;DHT22;25037;49.488;9.900;2022-11-15T12:09:58;18.20;60.60
39325;DHT22;25037;49.488;9.900;2022-11-15T12:12:35;18.20;60.60
39325;DHT22;25037;49.488;9.900;2022-11-15T12:17:36;18.20;60.70
39325;DHT22;25037;49.488;9.900;2022-11-15T12:20:17;18.20;61.10
39325;DHT22;25037;49.488;9.900;2022-11-15T12:22:48;18.20;61.30
39325;DHT22;25037;49.488;9.900;2022-11-15T12:27:51;18.20;61.50
39325;DHT22;25037;49.488;9.900;2022-11-15T12:30:19;18.30;61.20
39325;DHT22;25037;49.488;9.900;2022-11-15T12:32:55;18.30;60.60
39325;DHT22;25037;49.488;9.900;2022-11-15T12:35:38;18.30;60.50
39325;DHT22;25037;49.488;9.900;2022-11-15T12:38:08;18.30;60.00
39325;DHT22;25037;49.488;9.900;2022-11-15T12:40:36;18.30;60.20
39325;DHT22;25037;49.488;9.900;2022-11-15T12:45:44;18.40;60.20
39325;DHT22;25037;49.488;9.900;2022-11-15T12:53:26;18.50;59.00
39325;DHT22;25037;49.488;9.900;2022-11-15T12:58:57;18.60;59.20
39325;DHT22;25037;49.488;9.900;2022-11-15T13:04:24;18.60;59.00
39325;DHT22;25037;49.488;9.900;2022-11-15T13:07:00;18.50;59.20
39325;DHT22;25037;49.488;9.900;2022-11-15T13:12:10;18.40;59.50
39325;DHT22;25037;49.488;9.900;2022-11-15T13:14:43;18.40;59.50
39325;DHT22;25037;49.488;9.900;2022-11-15T13:19:46;18.30;59.20
39325;DHT22;25037;49.488;9.900;2022-11-15T13:22:13;18.30;59.30
39325;DHT22;25037;49.488;9.900;2022-11-15T13:24:57;18.30;59.60
39325;DHT22;25037;49.488;9.900;2022-11-15T13:27:23;18.30;59.50
39325;DHT22;25037;49.488;9.900;2022-11-15T13:29:48;18.30;59.50
39325;DHT22;25037;49.488;9.900;2022-11-15T13:32:15;18.30;59.50
39325;DHT22;25037;49.488;9.900;2022-11-15T13:34:46;18.30;59.40
39325;DHT22;25037;49.488;9.900;2022-11-15T13:39:48;18.30;59.30
39325;DHT22;25037;49.488;9.900;2022-11-15T13:42:20;18.20;59.50
39325;DHT22;25037;49.488;9.900;2022-11-15T13:45:00;18.20;59.60
39325;DHT22;25037;49.488;9.900;2022-11-15T13:47:27;18.30;59.60
39325;DHT22;25037;49.488;9.900;2022-11-15T13:49:56;18.30;59.90
39325;DHT22;25037;49.488;9.900;2022-11-15T13:52:25;18.30;59.90
39325;DHT22;25037;49.488;9.900;2022-11-15T13:55:02;18.20;60.00
39325;DHT22;25037;49.488;9.900;2022-11-15T13:57:44;18.20;60.00
39325;DHT22;25037;49.488;9.900;2022-11-15T14:00:30;18.20;60.20
39325;DHT22;25037;49.488;9.900;2022-11-15T14:08:28;18.00;60.70
39325;DHT22;25037;49.488;9.900;2022-11-15T14:11:29;18.00;60.50
39325;DHT22;25037;49.488;9.900;2022-11-15T14:16:41;17.90;60.50
39325;DHT22;25037;49.488;9.900;2022-11-15T14:19:10;17.80;61.00
39325;DHT22;25037;49.488;9.900;2022-11-15T14:21:36;17.70;60.90
39325;DHT22;25037;49.488;9.900;2022-11-15T14:24:20;17.60;60.60
39325;DHT22;25037;49.488;9.900;2022-11-15T14:26:46;17.50;59.50
39325;DHT22;25037;49.488;9.900;2022-11-15T14:29:25;17.40;59.50
39325;DHT22;25037;49.488;9.900;2022-11-15T14:31:52;17.30;58.50
39325;DHT22;25037;49.488;9.900;2022-11-15T14:34:17;17.20;58.70
39325;DHT22;25037;49.488;9.900;2022-11-15T14:36:43;17.20;58.60
39325;DHT22;25037;49.488;9.900;2022-11-15T14:39:09;17.10;58.90
39325;DHT22;25037;49.488;9.900;2022-11-15T14:41:35;17.00;58.60
39325;DHT22;25037;49.488;9.900;2022-11-15T14:44:05;17.00;58.10
39325;DHT22;25037;49.488;9.900;2022-11-15T14:46:31;16.90;58.00
39325;DHT22;25037;49.488;9.900;2022-11-15T14:48:57;16.80;58.30
39325;DHT22;25037;49.488;9.900;2022-11-15T14:51:22;16.70;58.50
39325;DHT22;25037;49.488;9.900;2022-11-15T14:53:48;16.70;58.40
39325;DHT22;25037;49.488;9.900;2022-11-15T14:56:14;16.60;58.20
39325;DHT22;25037;49.488;9.900;2022-11-15T14:58:41;16.50;58.20
39325;DHT22;25037;49.488;9.900;2022-11-15T15:01:20;16.50;58.30
39325;DHT22;25037;49.488;9.900;2022-11-15T15:03:46;16.40;58.10
39325;DHT22;25037;49.488;9.900;2022-11-15T15:06:11;16.30;58.30
39325;DHT22;25037;49.488;9.900;2022-11-15T15:08:39;16.20;58.20
39325;DHT22;25037;49.488;9.900;2022-11-15T15:11:26;16.10;58.30
39325;DHT22;25037;49.488;9.900;2022-11-15T15:13:53;16.10;57.90
39325;DHT22;25037;49.488;9.900;2022-11-15T15:16:22;16.00;58.50
39325;DHT22;25037;49.488;9.900;2022-11-15T15:18:48;15.90;58.60
39325;DHT22;25037;49.488;9.900;2022-11-15T15:21:24;15.90;58.60
39325;DHT22;25037;49.488;9.900;2022-11-15T15:23:51;15.80;58.60
39325;DHT22;25037;49.488;9.900;2022-11-15T15:26:19;15.70;58.80
39325;DHT22;25037;49.488;9.900;2022-11-15T15:28:44;15.70;58.80
39325;DHT22;25037;49.488;9.900;2022-11-15T15:31:10;15.60;58.90
39325;DHT22;25037;49.488;9.900;2022-11-15T15:33:37;15.60;59.10
39325;DHT22;25037;49.488;9.900;2022-11-15T15:36:02;15.50;59.20
39325;DHT22;25037;49.488;9.900;2022-11-15T15:38:29;15.40;59.00
39325;DHT22;25037;49.488;9.900;2022-11-15T15:40:54;15.30;59.20
39325;DHT22;25037;49.488;9.900;2022-11-15T15:43:20;15.30;59.20
39325;DHT22;25037;49.488;9.900;2022-11-15T15:45:46;15.20;59.50
39325;DHT22;25037;49.488;9.900;2022-11-15T15:48:15;15.10;59.80
39325;DHT22;25037;49.488;9.900;2022-11-15T15:50:42;15.10;60.30
39325;DHT22;25037;49.488;9.900;2022-11-15T15:53:09;15.00;60.40
39325;DHT22;25037;49.488;9.900;2022-11-15T15:55:36;15.00;60.60
39325;DHT22;25037;49.488;9.900;2022-11-15T15:58:02;14.80;60.60
39325;DHT22;25037;49.488;9.900;2022-11-15T16:00:27;14.80;60.60
39325;DHT22;25037;49.488;9.900;2022-11-15T16:02:53;14.80;60.70
39325;DHT22;25037;49.488;9.900;2022-11-15T16:05:19;14.70;60.90
39325;DHT22;25037;49.488;9.900;2022-11-15T16:07:45;14.60;61.20
39325;DHT22;25037;49.488;9.900;2022-11-15T16:12:50;14.40;62.00
39325;DHT22;25037;49.488;9.900;2022-11-15T16:15:17;14.40;62.10
39325;DHT22;25037;49.488;9.900;2022-11-15T16:18:00;14.30;62.50
39325;DHT22;25037;49.488;9.900;2022-11-15T16:23:07;14.10;63.00
39325;DHT22;25037;49.488;9.900;2022-11-15T16:25:51;14.00;63.10
39325;DHT22;25037;49.488;9.900;2022-11-15T16:28:18;14.00;63.10
39325;DHT22;25037;49.488;9.900;2022-11-15T16:30:44;13.90;63.20
39325;DHT22;25037;49.488;9.900;2022-11-15T16:33:10;13.80;63.40
39325;DHT22;25037;49.488;9.900;2022-11-15T16:35:35;13.70;63.60
39325;DHT22;25037;49.488;9.900;2022-11-15T16:38:01;13.70;63.70
39325;DHT22;25037;49.488;9.900;2022-11-15T16:40:29;13.60;63.80
39325;DHT22;25037;49.488;9.900;2022-11-15T16:42:58;13.60;63.90
39325;DHT22;25037;49.488;9.900;2022-11-15T16:45:26;13.50;64.00
39325;DHT22;25037;49.488;9.900;2022-11-15T16:47:54;13.40;64.20
39325;DHT22;25037;49.488;9.900;2022-11-15T16:50:22;13.50;64.40
39325;DHT22;25037;49.488;9.900;2022-11-15T16:52:54;13.30;64.70
39325;DHT22;25037;49.488;9.900;2022-11-15T16:55:21;13.30;65.10
39325;DHT22;25037;49.488;9.900;2022-11-15T16:57:48;13.30;65.30
39325;DHT22;25037;49.488;9.900;2022-11-15T17:00:15;13.20;65.30
39325;DHT22;25037;49.488;9.900;2022-11-15T17:02:46;13.10;65.50
39325;DHT22;25037;49.488;9.900;2022-11-15T17:05:13;13.10;65.60
39325;DHT22;25037;49.488;9.900;2022-11-15T17:07:39;13.10;65.60
39325;DHT22;25037;49.488;9.900;2022-11-15T17:10:06;13.10;65.80
39325;DHT22;25037;49.488;9.900;2022-11-15T17:12:33;13.10;66.00
39325;DHT22;25037;49.488;9.900;2022-11-15T17:14:59;13.10;66.20
39325;DHT22;25037;49.488;9.900;2022-11-15T17:17:25;13.10;66.30
39325;DHT22;25037;49.488;9.900;2022-11-15T17:19:51;13.10;66.40
39325;DHT22;25037;49.488;9.900;2022-11-15T17:22:18;13.10;66.60
39325;DHT22;25037;49.488;9.900;2022-11-15T17:24:43;13.10;66.80
39325;DHT22;25037;49.488;9.900;2022-11-15T17:27:09;13.10;66.90
39325;DHT22;25037;49.488;9.900;2022-11-15T17:29:34;13.10;67.00
39325;DHT22;25037;49.488;9.900;2022-11-15T17:32:00;13.00;67.00
39325;DHT22;25037;49.488;9.900;2022-11-15T17:34:25;13.00;67.10
39325;DHT22;25037;49.488;9.900;2022-11-15T17:36:51;13.00;67.30
39325;DHT22;25037;49.488;9.900;2022-11-15T17:39:16;13.00;67.30
39325;DHT22;25037;49.488;9.900;2022-11-15T17:41:43;12.90;67.20
39325;DHT22;25037;49.488;9.900;2022-11-15T17:44:09;12.90;67.10
39325;DHT22;25037;49.488;9.900;2022-11-15T17:46:35;12.90;67.10
39325;DHT22;25037;49.488;9.900;2022-11-15T17:49:00;12.90;67.20
39325;DHT22;25037;49.488;9.900;2022-11-15T17:51:26;12.90;67.20